ADDS METAR Data

Data at: 1827 UTC 20 Jul 2018

METAR for:KPSM (Portsmouth Intl, NH, US)
Text:KPSM 201756Z 09007KT 10SM FEW060 25/14 A3016 RMK AO2A DZB14E17RAB17E27 SLP215 P0000 60000 T02530141 10261 20191 58003
Temperature: 25.3°C ( 78°F)
Dewpoint: 14.1°C ( 57°F) [RH = 50%]
Pressure (altimeter):30.16 inches Hg (1021.4 mb) [Sea level pressure: 1021.5 mb]
Winds:from the E (90 degrees) at 8 MPH (7 knots; 3.6 m/s)
Visibility:10 or more sm (16+ km)
Ceiling:at least 12,000 feet AGL
Clouds: few clouds at 6000 feet AGL